Terminal Aerodrome Forecast
Issued by NWS

Home | Current Version | Previous Version | Text Only | Print | Product List | Glossary On
Versions: 1 2 3 4 5 6 7 8 9 10 11 12
258
FTUS43 KPAH 040520
TAFCGI
TAF
KCGI 040520Z 0406/0506 24003KT P6SM SKC
     FM041100 23007KT P6SM BKN070
     FM041600 32015G25KT P6SM BKN050
     FM050100 34005KT P6SM FEW060=

USA.gov is the U.S. government's official web portal to all federal, state and local government web resources and services.